createdAt,value
2019-03-05T00:01:07.048Z,1.70
2019-03-05T00:03:36.628Z,1.70
2019-03-05T00:06:05.527Z,1.70
2019-03-05T00:08:34.605Z,1.70
2019-03-05T00:11:03.426Z,1.70
2019-03-05T00:13:32.192Z,1.70
2019-03-05T00:16:01.904Z,1.70
2019-03-05T00:18:30.869Z,1.70
2019-03-05T00:20:59.831Z,1.70
2019-03-05T00:23:50.440Z,1.70
2019-03-05T00:26:28.026Z,1.70
2019-03-05T00:28:59.940Z,1.70
2019-03-05T00:32:05.796Z,1.70
2019-03-05T00:34:46.577Z,1.70
2019-03-05T00:37:30.568Z,1.70
2019-03-05T00:40:26.546Z,1.70
2019-03-05T00:43:21.915Z,1.70
2019-03-05T00:45:58.181Z,1.70
2019-03-05T00:48:38.818Z,1.70
2019-03-05T00:51:24.930Z,1.70
2019-03-05T00:54:15.749Z,1.70
2019-03-05T00:57:08.570Z,1.70
2019-03-05T00:59:47.258Z,1.60
2019-03-05T01:02:31.519Z,1.60
2019-03-05T01:05:13.724Z,1.70
2019-03-05T01:07:43.094Z,1.70
2019-03-05T01:10:14.516Z,1.70
2019-03-05T01:12:43.594Z,1.70
2019-03-05T01:15:12.809Z,1.60
2019-03-05T01:17:41.757Z,1.60
2019-03-05T01:20:12.198Z,1.60
2019-03-05T01:22:42.071Z,1.60
2019-03-05T01:25:28.476Z,1.60
2019-03-05T01:27:57.924Z,1.60
2019-03-05T01:30:34.607Z,1.60
2019-03-05T01:33:05.179Z,1.60
2019-03-05T01:35:41.969Z,1.60
2019-03-05T01:38:11.043Z,1.60
2019-03-05T01:40:40.486Z,1.60
2019-03-05T01:43:09.598Z,1.60
2019-03-05T01:45:38.771Z,1.60
2019-03-05T01:48:08.119Z,1.50
2019-03-05T01:50:37.198Z,1.50
2019-03-05T01:53:06.636Z,1.50
2019-03-05T01:55:35.690Z,1.60
2019-03-05T01:58:04.689Z,1.60
2019-03-05T02:00:34.803Z,1.60
2019-03-05T02:03:04.119Z,1.50
2019-03-05T02:05:33.078Z,1.50
2019-03-05T02:08:03.158Z,1.50
2019-03-05T02:10:32.275Z,1.50
2019-03-05T02:13:01.395Z,1.40
2019-03-05T02:15:31.057Z,1.40
2019-03-05T02:18:00.068Z,1.40
2019-03-05T02:20:29.667Z,1.40
2019-03-05T02:23:04.719Z,1.40
2019-03-05T02:25:39.163Z,1.40
2019-03-05T02:28:29.236Z,1.40
2019-03-05T02:31:10.006Z,1.40
2019-03-05T02:33:48.532Z,1.40
2019-03-05T02:36:44.792Z,1.40
2019-03-05T02:39:25.997Z,1.40
2019-03-05T02:42:18.915Z,1.30
2019-03-05T02:45:07.800Z,1.40
2019-03-05T02:47:40.041Z,1.30
2019-03-05T02:50:28.416Z,1.40
2019-03-05T02:53:19.916Z,1.30
2019-03-05T02:56:08.449Z,1.30
2019-03-05T02:58:36.265Z,1.30
2019-03-05T03:01:24.598Z,1.30
2019-03-05T03:03:58.173Z,1.30
2019-03-05T03:06:29.149Z,1.30
2019-03-05T03:09:26.535Z,1.30
2019-03-05T03:11:55.706Z,1.30
2019-03-05T03:14:24.683Z,1.30
2019-03-05T03:16:53.800Z,1.20
2019-03-05T03:19:23.183Z,1.20
2019-03-05T03:21:52.257Z,1.20
2019-03-05T03:24:41.248Z,1.20
2019-03-05T03:27:10.440Z,1.20
2019-03-05T03:29:39.662Z,1.20
2019-03-05T03:32:10.886Z,1.10
2019-03-05T03:34:40.060Z,1.10
2019-03-05T03:37:09.139Z,1.10
2019-03-05T03:39:38.385Z,1.20
2019-03-05T03:42:15.637Z,1.10
2019-03-05T03:44:45.081Z,1.00
2019-03-05T03:47:13.951Z,1.00
2019-03-05T03:49:43.024Z,1.00
2019-03-05T03:52:12.271Z,1.00
2019-03-05T03:54:41.502Z,1.00
2019-03-05T03:57:10.460Z,0.90
2019-03-05T03:59:39.540Z,1.00
2019-03-05T04:02:08.403Z,1.00
2019-03-05T04:04:37.324Z,0.90
2019-03-05T04:07:06.819Z,0.90
2019-03-05T04:09:36.297Z,0.90
2019-03-05T04:12:06.180Z,0.90
2019-03-05T04:14:36.188Z,0.80
2019-03-05T04:17:05.315Z,0.80
2019-03-05T04:19:34.492Z,0.80
2019-03-05T04:22:03.809Z,0.80
2019-03-05T04:24:33.865Z,0.80
2019-03-05T04:27:02.908Z,0.80
2019-03-05T04:29:32.324Z,0.80
2019-03-05T04:32:01.677Z,0.80
2019-03-05T04:34:30.583Z,0.80
2019-03-05T04:37:00.084Z,0.80
2019-03-05T04:39:29.065Z,0.80
2019-03-05T04:41:57.964Z,0.80
2019-03-05T04:44:28.700Z,0.70
2019-03-05T04:46:57.990Z,0.70
2019-03-05T04:49:31.738Z,0.70
2019-03-05T04:52:05.874Z,0.60
2019-03-05T04:54:35.002Z,0.60
2019-03-05T04:57:04.313Z,0.60
2019-03-05T04:59:33.262Z,0.60
2019-03-05T05:02:02.282Z,0.50
2019-03-05T05:04:31.472Z,0.50
2019-03-05T05:07:00.360Z,0.50
2019-03-05T05:09:29.306Z,0.50
2019-03-05T05:11:58.727Z,0.50
2019-03-05T05:14:27.648Z,0.50
2019-03-05T05:16:57.060Z,0.50
2019-03-05T05:19:27.406Z,0.50
2019-03-05T05:21:56.387Z,0.40
2019-03-05T05:24:25.926Z,0.50
2019-03-05T05:26:54.940Z,0.50
2019-03-05T05:29:23.990Z,0.50
2019-03-05T05:31:53.260Z,0.40
2019-03-05T05:34:23.515Z,0.40
2019-03-05T05:36:52.427Z,0.50
2019-03-05T05:39:59.290Z,0.40
2019-03-05T05:42:28.399Z,0.40
2019-03-05T05:44:57.487Z,0.40
2019-03-05T05:47:26.569Z,0.40
2019-03-05T05:49:55.397Z,0.40
2019-03-05T05:52:24.336Z,0.40
2019-03-05T05:54:53.652Z,0.40
2019-03-05T05:57:22.737Z,0.40
2019-03-05T05:59:51.784Z,0.30
2019-03-05T06:02:21.324Z,0.30
2019-03-05T06:04:50.925Z,0.30
2019-03-05T06:07:20.043Z,0.30
2019-03-05T06:09:49.457Z,0.40
2019-03-05T06:12:18.502Z,0.30
2019-03-05T06:14:47.465Z,0.30
2019-03-05T06:17:16.431Z,0.30
2019-03-05T06:19:45.530Z,0.30
2019-03-05T06:22:17.588Z,0.30
2019-03-05T06:24:46.586Z,0.30
2019-03-05T06:27:16.554Z,0.30
2019-03-05T06:29:45.738Z,0.30
2019-03-05T06:32:17.318Z,0.30
2019-03-05T06:34:45.200Z,0.20
2019-03-05T06:37:14.359Z,0.30
2019-03-05T06:39:43.246Z,0.30
2019-03-05T06:42:12.441Z,0.20
2019-03-05T06:44:41.409Z,0.20
2019-03-05T06:47:10.468Z,0.20
2019-03-05T06:49:39.627Z,0.20
2019-03-05T06:52:11.689Z,0.20
2019-03-05T06:54:41.746Z,0.20
2019-03-05T06:57:10.817Z,0.20
2019-03-05T06:59:39.766Z,0.20
2019-03-05T07:02:08.573Z,0.20
2019-03-05T07:04:37.929Z,0.20
2019-03-05T07:07:07.067Z,0.20
2019-03-05T07:09:44.819Z,0.20
2019-03-05T07:12:34.951Z,0.10
2019-03-05T07:15:30.886Z,0.10
2019-03-05T07:18:08.999Z,0.10
2019-03-05T07:20:50.310Z,0.10
2019-03-05T07:23:34.389Z,0.10
2019-03-05T07:26:03.615Z,0.10
2019-03-05T07:28:32.679Z,0.00
2019-03-05T07:31:01.666Z,0.10
2019-03-05T07:33:30.759Z,0.10
2019-03-05T07:35:59.572Z,0.00
2019-03-05T07:38:28.522Z,0.00
2019-03-05T07:40:57.867Z,0.00
2019-03-05T07:43:36.158Z,0.10
2019-03-05T07:45:57.825Z,0.00
2019-03-05T07:48:29.526Z,0.00
2019-03-05T07:50:57.304Z,0.10
2019-03-05T07:53:26.554Z,0.00
2019-03-05T07:55:55.783Z,0.00
2019-03-05T07:58:24.636Z,0.00
2019-03-05T08:00:53.718Z,0.00
2019-03-05T08:03:22.951Z,-0.10
2019-03-05T08:05:52.493Z,-0.10
2019-03-05T08:08:57.767Z,-0.10
2019-03-05T08:11:27.031Z,-0.10
2019-03-05T08:14:05.549Z,-0.10
2019-03-05T08:16:34.999Z,-0.10
2019-03-05T08:19:04.261Z,-0.10
2019-03-05T08:21:33.438Z,-0.10
2019-03-05T08:24:02.420Z,-0.10
2019-03-05T08:26:31.345Z,-0.20
2019-03-05T08:29:02.809Z,-0.20
2019-03-05T08:31:30.910Z,-0.20
2019-03-05T08:33:59.728Z,-0.20
2019-03-05T08:36:28.766Z,-0.20
2019-03-05T08:38:58.033Z,-0.20
2019-03-05T08:41:27.518Z,-0.10
2019-03-05T08:43:56.758Z,-0.10
2019-03-05T08:46:25.709Z,-0.10
2019-03-05T08:48:55.343Z,-0.10
2019-03-05T08:51:24.512Z,-0.20
2019-03-05T08:53:53.624Z,-0.20
2019-03-05T08:56:22.853Z,-0.20
2019-03-05T08:58:52.394Z,-0.20
2019-03-05T09:01:21.587Z,-0.20
2019-03-05T09:03:50.827Z,-0.20
2019-03-05T09:06:39.220Z,-0.20
2019-03-05T09:09:09.986Z,-0.10
2019-03-05T09:11:39.006Z,-0.20
2019-03-05T09:14:08.312Z,-0.10
2019-03-05T09:16:37.649Z,-0.10
2019-03-05T09:19:06.549Z,-0.10
2019-03-05T09:21:35.845Z,-0.10
2019-03-05T09:24:05.127Z,-0.10
2019-03-05T09:26:33.982Z,-0.10
2019-03-05T09:29:03.119Z,-0.10
2019-03-05T09:31:32.278Z,-0.10
2019-03-05T09:34:01.054Z,-0.20
2019-03-05T09:36:30.582Z,-0.20
2019-03-05T09:39:00.151Z,-0.20
2019-03-05T09:41:29.391Z,-0.10
2019-03-05T09:43:59.253Z,-0.10
2019-03-05T09:46:28.169Z,-0.10
2019-03-05T09:48:57.032Z,-0.10
2019-03-05T09:51:26.522Z,-0.20
2019-03-05T09:53:55.613Z,-0.10
2019-03-05T09:56:25.131Z,-0.10
2019-03-05T09:58:54.488Z,-0.10
2019-03-05T10:01:44.130Z,-0.10
2019-03-05T10:04:13.209Z,-0.10
2019-03-05T10:06:42.195Z,-0.10
2019-03-05T10:09:11.440Z,-0.10
2019-03-05T10:11:40.742Z,-0.10
2019-03-05T10:14:09.598Z,-0.10
2019-03-05T10:16:38.622Z,-0.10
2019-03-05T10:19:08.670Z,-0.10
2019-03-05T10:21:45.765Z,-0.20
2019-03-05T10:24:10.695Z,-0.10
2019-03-05T10:26:39.823Z,-0.20
2019-03-05T10:29:08.807Z,-0.20
2019-03-05T10:31:39.290Z,-0.10
2019-03-05T10:34:08.250Z,-0.10
2019-03-05T10:36:37.352Z,-0.10
2019-03-05T10:39:10.149Z,-0.10
2019-03-05T10:41:39.073Z,-0.10
2019-03-05T10:44:09.287Z,0.00
2019-03-05T10:46:38.278Z,0.00
2019-03-05T10:49:07.357Z,0.10
2019-03-05T10:51:36.243Z,0.20
2019-03-05T10:54:06.711Z,0.20
2019-03-05T10:56:35.708Z,0.30
2019-03-05T10:59:05.490Z,0.30
2019-03-05T11:01:36.255Z,0.30
2019-03-05T11:04:09.039Z,0.30
2019-03-05T11:06:38.442Z,0.30
2019-03-05T11:09:08.363Z,0.30
2019-03-05T11:11:37.253Z,0.40
2019-03-05T11:14:06.792Z,0.40
2019-03-05T11:16:35.959Z,0.40
2019-03-05T11:19:05.357Z,0.30
2019-03-05T11:21:35.506Z,0.30
2019-03-05T11:24:04.559Z,0.30
2019-03-05T11:26:33.686Z,0.30
2019-03-05T11:29:03.094Z,0.30
2019-03-05T11:31:32.751Z,0.30
2019-03-05T11:34:01.599Z,0.30
2019-03-05T11:36:31.313Z,0.30
2019-03-05T11:39:00.171Z,0.30
2019-03-05T11:41:29.280Z,0.30
2019-03-05T11:43:58.389Z,0.30
2019-03-05T11:46:27.360Z,0.30
2019-03-05T11:48:56.684Z,0.30
2019-03-05T11:51:25.749Z,0.30
2019-03-05T11:53:54.614Z,0.30
2019-03-05T11:56:23.792Z,0.30
2019-03-05T11:58:52.729Z,0.30
2019-03-05T12:01:23.657Z,0.20
2019-03-05T12:03:53.500Z,0.20
2019-03-05T12:06:24.123Z,0.20
2019-03-05T12:08:52.960Z,0.20
2019-03-05T12:11:24.533Z,0.20
2019-03-05T12:13:53.448Z,0.20
2019-03-05T12:16:23.483Z,0.20
2019-03-05T12:18:53.042Z,0.20
2019-03-05T12:21:22.030Z,0.20
2019-03-05T12:23:51.063Z,0.20
2019-03-05T12:26:20.790Z,0.20
2019-03-05T12:28:49.858Z,0.20
2019-03-05T12:31:18.917Z,0.20
2019-03-05T12:33:48.155Z,0.20
2019-03-05T12:36:17.545Z,0.20
2019-03-05T12:38:47.205Z,0.20
2019-03-05T12:41:17.092Z,0.30
2019-03-05T12:43:46.674Z,0.30
2019-03-05T12:46:15.616Z,0.30
2019-03-05T12:48:45.513Z,0.30
2019-03-05T12:51:14.900Z,0.30
2019-03-05T12:53:43.814Z,0.40
2019-03-05T12:56:23.082Z,0.40
2019-03-05T12:58:43.654Z,0.40
2019-03-05T13:01:12.765Z,0.40
2019-03-05T13:03:42.481Z,0.40
2019-03-05T13:06:11.441Z,0.30
2019-03-05T13:08:40.902Z,0.40
2019-03-05T13:11:12.980Z,0.40
2019-03-05T13:13:47.496Z,0.40
2019-03-05T13:16:15.963Z,0.40
2019-03-05T13:18:45.399Z,0.40
2019-03-05T13:21:14.797Z,0.40
2019-03-05T13:23:44.539Z,0.40
2019-03-05T13:26:13.364Z,0.50
2019-03-05T13:28:42.241Z,0.50
2019-03-05T13:31:14.629Z,0.60
2019-03-05T13:33:43.443Z,0.60
2019-03-05T13:36:13.458Z,0.60
2019-03-05T13:38:45.391Z,0.60
2019-03-05T13:41:15.530Z,0.60
2019-03-05T13:43:45.714Z,0.60
2019-03-05T13:46:14.924Z,0.60
2019-03-05T13:49:01.981Z,0.60
2019-03-05T13:52:09.150Z,0.50
2019-03-05T13:55:01.876Z,0.50
2019-03-05T13:57:57.593Z,0.40
2019-03-05T14:00:26.913Z,0.40
2019-03-05T14:03:02.035Z,0.40
2019-03-05T14:05:41.826Z,0.40
2019-03-05T14:08:31.609Z,0.40
2019-03-05T14:11:00.687Z,0.40
2019-03-05T14:13:32.716Z,0.30
2019-03-05T14:16:02.105Z,0.30
2019-03-05T14:18:32.439Z,0.30
2019-03-05T14:21:01.356Z,0.30
2019-03-05T14:23:30.491Z,0.30
2019-03-05T14:25:59.522Z,0.30
2019-03-05T14:28:28.593Z,0.20
2019-03-05T14:30:58.394Z,0.20
2019-03-05T14:33:27.963Z,0.10
2019-03-05T14:35:59.676Z,0.10
2019-03-05T14:38:28.977Z,0.00
2019-03-05T14:40:58.102Z,0.00
2019-03-05T14:43:27.670Z,0.00
2019-03-05T14:45:56.947Z,0.00
2019-03-05T14:48:30.159Z,0.00
2019-03-05T14:50:58.970Z,-0.10
2019-03-05T14:53:28.266Z,-0.10
2019-03-05T14:55:57.499Z,-0.20
2019-03-05T14:58:26.866Z,-0.20
2019-03-05T15:00:56.066Z,-0.20
2019-03-05T15:03:25.935Z,-0.20
2019-03-05T15:05:55.003Z,-0.20
2019-03-05T15:08:24.473Z,-0.20
2019-03-05T15:11:13.220Z,-0.20
2019-03-05T15:13:42.519Z,-0.20
2019-03-05T15:16:14.921Z,-0.20
2019-03-05T15:18:43.890Z,-0.30
2019-03-05T15:21:13.147Z,-0.30
2019-03-05T15:23:42.380Z,-0.30
2019-03-05T15:26:11.567Z,-0.30
2019-03-05T15:28:40.720Z,-0.30
2019-03-05T15:31:16.842Z,-0.30
2019-03-05T15:33:42.447Z,-0.40
2019-03-05T15:36:23.228Z,-0.40
2019-03-05T15:38:42.886Z,-0.40
2019-03-05T15:41:12.260Z,-0.40
2019-03-05T15:43:41.823Z,-0.40
2019-03-05T15:46:11.337Z,-0.50
2019-03-05T15:48:40.575Z,-0.50
2019-03-05T15:51:09.843Z,-0.50
2019-03-05T15:53:40.022Z,-0.50
2019-03-05T15:56:09.200Z,-0.50
2019-03-05T15:58:39.383Z,-0.50
2019-03-05T16:01:09.921Z,-0.50
2019-03-05T16:03:42.266Z,-0.50
2019-03-05T16:06:14.028Z,-0.60
2019-03-05T16:08:43.929Z,-0.60
2019-03-05T16:11:14.681Z,-0.70
2019-03-05T16:13:45.778Z,-0.60
2019-03-05T16:16:18.454Z,-0.60
2019-03-05T16:18:47.497Z,-0.60
2019-03-05T16:21:16.705Z,-0.60
2019-03-05T16:23:45.756Z,-0.70
2019-03-05T16:26:14.770Z,-0.70
2019-03-05T16:28:44.998Z,-0.70
2019-03-05T16:31:17.244Z,-0.80
2019-03-05T16:33:57.088Z,-0.80
2019-03-05T16:36:29.185Z,-0.80
2019-03-05T16:39:01.986Z,-0.80
2019-03-05T16:41:53.316Z,-0.80
2019-03-05T16:44:40.513Z,-0.80
2019-03-05T16:47:21.187Z,-0.80
2019-03-05T16:50:01.308Z,-0.80
2019-03-05T16:52:40.728Z,-0.80
2019-03-05T16:55:30.665Z,-0.80
2019-03-05T16:58:01.642Z,-0.80
2019-03-05T17:00:49.423Z,-0.90
2019-03-05T17:03:20.705Z,-0.90
2019-03-05T17:05:51.650Z,-0.90
2019-03-05T17:08:24.923Z,-0.90
2019-03-05T17:11:10.621Z,-0.90
2019-03-05T17:13:40.101Z,-0.90
2019-03-05T17:16:30.230Z,-0.90
2019-03-05T17:18:59.649Z,-0.90
2019-03-05T17:21:30.758Z,-1.00
2019-03-05T17:24:00.584Z,-1.00
2019-03-05T17:26:31.204Z,-1.00
2019-03-05T17:29:00.271Z,-1.00
2019-03-05T17:31:29.488Z,-1.10
2019-03-05T17:33:58.590Z,-1.10
2019-03-05T17:36:28.032Z,-1.10
2019-03-05T17:38:57.141Z,-1.20
2019-03-05T17:41:26.556Z,-1.20
2019-03-05T17:44:14.634Z,-1.20
2019-03-05T17:46:52.236Z,-1.20
2019-03-05T17:49:21.596Z,-1.20
2019-03-05T17:51:50.726Z,-1.20
2019-03-05T17:54:20.663Z,-1.20
2019-03-05T17:56:49.804Z,-1.30
2019-03-05T17:59:18.934Z,-1.30
2019-03-05T18:01:47.981Z,-1.30
2019-03-05T18:04:17.176Z,-1.40
2019-03-05T18:06:46.149Z,-1.40
2019-03-05T18:09:21.728Z,-1.50
2019-03-05T18:11:53.271Z,-1.50
2019-03-05T18:14:22.441Z,-1.50
2019-03-05T18:16:51.419Z,-1.50
2019-03-05T18:19:20.662Z,-1.50
2019-03-05T18:21:50.011Z,-1.50
2019-03-05T18:24:19.560Z,-1.50
2019-03-05T18:26:48.454Z,-1.50
2019-03-05T18:29:18.262Z,-1.60
2019-03-05T18:31:48.465Z,-1.60
2019-03-05T18:34:18.558Z,-1.60
2019-03-05T18:36:49.288Z,-1.70
2019-03-05T18:39:19.993Z,-1.70
2019-03-05T18:41:50.207Z,-1.70
2019-03-05T18:44:19.267Z,-1.70
2019-03-05T18:46:49.532Z,-1.70
2019-03-05T18:49:19.202Z,-1.70
2019-03-05T18:51:48.177Z,-1.70
2019-03-05T18:54:17.454Z,-1.70
2019-03-05T18:56:48.923Z,-1.70
2019-03-05T18:59:18.478Z,-1.70
2019-03-05T19:01:48.409Z,-1.80
2019-03-05T19:04:17.585Z,-1.80
2019-03-05T19:06:53.662Z,-1.80
2019-03-05T19:09:22.777Z,-1.90
2019-03-05T19:11:52.499Z,-1.90
2019-03-05T19:14:21.866Z,-1.90
2019-03-05T19:16:51.111Z,-1.90
2019-03-05T19:19:20.306Z,-1.90
2019-03-05T19:21:49.639Z,-2.00
2019-03-05T19:24:18.998Z,-2.00
2019-03-05T19:26:47.959Z,-2.00
2019-03-05T19:29:19.006Z,-1.90
2019-03-05T19:31:49.129Z,-2.00
2019-03-05T19:34:18.258Z,-2.00
2019-03-05T19:36:47.486Z,-2.00
2019-03-05T19:39:16.794Z,-2.00
2019-03-05T19:41:45.782Z,-2.00
2019-03-05T19:44:14.637Z,-2.10
2019-03-05T19:46:43.919Z,-2.10
2019-03-05T19:49:13.943Z,-2.10
2019-03-05T19:51:43.725Z,-2.10
2019-03-05T19:54:12.666Z,-2.10
2019-03-05T19:56:42.132Z,-2.20
2019-03-05T19:59:11.255Z,-2.20
2019-03-05T20:01:40.320Z,-2.20
2019-03-05T20:04:11.970Z,-2.20
2019-03-05T20:06:40.708Z,-2.20
2019-03-05T20:09:13.388Z,-2.20
2019-03-05T20:11:42.274Z,-2.30
2019-03-05T20:14:12.930Z,-2.30
2019-03-05T20:16:41.921Z,-2.30
2019-03-05T20:19:11.332Z,-2.30
2019-03-05T20:21:41.818Z,-2.30
2019-03-05T20:24:10.920Z,-2.40
2019-03-05T20:26:40.602Z,-2.40
2019-03-05T20:29:10.824Z,-2.30
2019-03-05T20:31:40.292Z,-2.40
2019-03-05T20:34:10.688Z,-2.40
2019-03-05T20:36:39.835Z,-2.40
2019-03-05T20:39:08.777Z,-2.40
2019-03-05T20:41:40.655Z,-2.40
2019-03-05T20:44:09.692Z,-2.40
2019-03-05T20:46:41.364Z,-2.40
2019-03-05T20:49:10.521Z,-2.40
2019-03-05T20:51:39.607Z,-2.40
2019-03-05T20:54:09.159Z,-2.50
2019-03-05T20:56:38.236Z,-2.50
2019-03-05T20:59:07.786Z,-2.50
2019-03-05T21:01:37.317Z,-2.50
2019-03-05T21:04:06.763Z,-2.50
2019-03-05T21:06:35.611Z,-2.50
2019-03-05T21:09:06.291Z,-2.60
2019-03-05T21:11:35.410Z,-2.60
2019-03-05T21:14:04.992Z,-2.60
2019-03-05T21:16:34.287Z,-2.60
2019-03-05T21:19:03.848Z,-2.70
2019-03-05T21:21:33.412Z,-2.80
2019-03-05T21:24:05.786Z,-2.80
2019-03-05T21:26:34.376Z,-2.90
2019-03-05T21:29:03.480Z,-2.90
2019-03-05T21:31:33.069Z,-2.90
2019-03-05T21:34:02.132Z,-2.90
2019-03-05T21:36:30.998Z,-2.90
2019-03-05T21:39:02.020Z,-3.00
2019-03-05T21:41:31.006Z,-3.00
2019-03-05T21:44:05.550Z,-3.00
2019-03-05T21:46:35.638Z,-3.00
2019-03-05T21:49:04.699Z,-3.00
2019-03-05T21:51:34.094Z,-3.00
2019-03-05T21:54:03.541Z,-3.00
2019-03-05T21:56:32.490Z,-3.00
2019-03-05T21:59:01.531Z,-3.00
2019-03-05T22:01:52.385Z,-3.00
2019-03-05T22:04:25.627Z,-3.00
2019-03-05T22:06:54.516Z,-3.00
2019-03-05T22:09:23.645Z,-3.00
2019-03-05T22:12:06.798Z,-3.00
2019-03-05T22:14:38.011Z,-3.00
2019-03-05T22:17:07.288Z,-3.00
2019-03-05T22:19:40.132Z,-3.00
2019-03-05T22:22:09.102Z,-3.00
2019-03-05T22:24:38.095Z,-3.00
2019-03-05T22:27:23.128Z,-3.00
2019-03-05T22:30:14.638Z,-3.00
2019-03-05T22:32:46.294Z,-3.00
2019-03-05T22:35:16.071Z,-3.00
2019-03-05T22:40:31.092Z,-3.10
2019-03-05T22:43:00.813Z,-3.10
2019-03-05T22:45:32.091Z,-3.10
2019-03-05T22:48:01.167Z,-3.10
2019-03-05T22:50:50.066Z,-3.10
2019-03-05T22:53:19.317Z,-3.10
2019-03-05T22:56:08.056Z,-3.00
2019-03-05T22:58:51.038Z,-3.00
2019-03-05T23:01:52.986Z,-3.00
2019-03-05T23:04:24.908Z,-3.00
2019-03-05T23:07:25.455Z,-3.00
2019-03-05T23:10:09.082Z,-3.00
2019-03-05T23:12:38.740Z,-3.00
2019-03-05T23:15:10.718Z,-3.00
2019-03-05T23:17:39.762Z,-3.00
2019-03-05T23:20:11.192Z,-2.90
2019-03-05T23:22:40.155Z,-2.90
2019-03-05T23:26:10.759Z,-2.90
2019-03-05T23:28:55.324Z,-2.90
2019-03-05T23:31:24.779Z,-3.00
2019-03-05T23:33:53.694Z,-2.90
2019-03-05T23:36:22.897Z,-2.90
2019-03-05T23:39:05.825Z,-2.90
2019-03-05T23:41:34.936Z,-2.90
2019-03-05T23:44:04.303Z,-2.90
2019-03-05T23:46:35.828Z,-2.90
2019-03-05T23:49:27.907Z,-2.90
2019-03-05T23:52:07.077Z,-2.90
2019-03-05T23:54:36.740Z,-2.90
2019-03-05T23:57:05.648Z,-2.90
2019-03-05T23:59:54.633Z,-2.90
